This is the latest recevied weather packets stored in our database for station/object WC4PEM-12. If no packets are shown the sender has not sent any weather packets the latest 10 day(s).
| Time | Temp. | Humidity | Pressure | Rain* | Wind** | Luminosity | Snow |
|---|---|---|---|---|---|---|---|
| 1777692786 | 23.33° C | 80% | 1011.6 hPa | 0 mm | - | - | - |
| 1777692486 | 23.33° C | 80% | 1011.5 hPa | 0 mm | - | - | - |
| 1777692403 | 23.33° C | 80% | 1011.6 hPa | 0 mm | - | - | - |
| 1777692186 | 23.33° C | 80% | 1011.6 hPa | 0 mm | - | - | - |
| 1777691886 | 23.33° C | 80% | 1011.6 hPa | 0 mm | - | - | - |
| 1777691586 | 23.33° C | 79% | 1011.4 hPa | 0 mm | - | - | - |
| 1777691286 | 23.89° C | 79% | 1011.5 hPa | 0 mm | - | - | - |
| 1777690986 | 23.89° C | 78% | 1011.6 hPa | 0 mm | - | - | - |
| 1777690686 | 23.89° C | 78% | 1011.6 hPa | 0 mm | - | - | - |
| 1777690386 | 23.89° C | 77% | 1011.4 hPa | 0 mm | - | - | - |
| 1777690086 | 23.89° C | 77% | 1011.7 hPa | 0 mm | - | - | - |
| 1777689786 | 24.44° C | 76% | 1011.8 hPa | 0 mm | - | - | - |
| 1777689486 | 24.44° C | 76% | 1011.5 hPa | 0 mm | - | - | - |
| 1777689186 | 24.44° C | 76% | 1011.3 hPa | 0 mm | - | - | - |
| 1777688886 | 24.44° C | 76% | 1011.4 hPa | 0 mm | - | - | - |
| 1777688586 | 24.44° C | 75% | 1011.5 hPa | 0 mm | - | - | - |
| 1777688421 | 25.56° C | 72% | 1011.2 hPa | 0 mm | - | - | - |
| 1777688352 | 25° C | 74% | 1011.4 hPa | 0 mm | - | - | - |
| 1777688287 | 24.44° C | 75% | 1011.4 hPa | 0 mm | - | - | - |
| 1777687986 | 25° C | 74% | 1011.4 hPa | 0 mm | - | - | - |
| 1777687686 | 25° C | 73% | 1011.5 hPa | 0 mm | - | - | - |
| 1777687386 | 25° C | 72% | 1011.4 hPa | 0 mm | - | - | - |
| 1777687086 | 25.56° C | 72% | 1011.4 hPa | 0 mm | - | - | - |
| 1777686786 | 25.56° C | 72% | 1011.2 hPa | 0 mm | - | - | - |
| 1777686519 | 26.67° C | 65% | 1010.8 hPa | 0 mm | - | - | - |
* Rain latest hour (hover to see other rain measurements)
** Current wind speed in m/s (hover to see current wind gust speed)